Terminal Aerodrome Forecast
Issued by NWS

Current Version | Previous Version | Graphics & Text | Print | Product List | Glossary On
Versions: 1 2 3 4 5 6 7 8 9 10 11 12 13 14 15 16
000
FTUS41 KRNK 222322
TAFLWB
TAF
KLWB 222322Z 2300/2324 23005KT P6SM VCSH SCT030 OVC050
     FM230300 00000KT 5SM -SHRA OVC035
      TEMPO 2304/2308 3SM -SHRA OVC015
     FM230900 20004KT P6SM VCSH BKN007 OVC015 WS020/22035KT
     FM231300 23006KT P6SM BKN020
     FM231900 24012G22KT P6SM BKN050=

USA.gov is the U.S. government's official web portal to all federal, state and local government web resources and services.